Time;durP1;ratioP1;P1;durP2;ratioP2;P2;SDS_P1;SDS_P2;PMS_P1;PMS_P2;Temp;Humidity;BMP_temperature;BMP_pressure;BME280_temperature;BME280_humidity;BME280_pressure;Samples;Min_cycle;Max_cycle;Signal;HPM_P1;HPM_P2
2022/06/03 00:00:53;;;;;;;;;4.25;3.00;;;;;20.80;37.60;100941.56;4928162;28;46491;-78
2022/06/03 00:03:24;;;;;;;;;3.00;3.00;;;;;20.78;37.92;100940.91;4938499;28;45401;-77
2022/06/03 00:06:09;;;;;;;;;3.00;3.00;;;;;20.72;37.76;100943.34;4921566;28;45366;-77
2022/06/03 00:08:55;;;;;;;;;3.00;3.00;;;;;20.64;38.46;100942.22;4922451;28;45595;-77
2022/06/03 00:11:42;;;;;;;;;3.50;3.50;;;;;20.58;38.32;100939.25;4924980;28;46382;-77
2022/06/03 00:14:39;;;;;;;;;3.75;3.25;;;;;20.55;38.46;100931.38;4924718;28;45630;-77
2022/06/03 00:17:27;;;;;;;;;6.00;4.00;;;;;20.50;38.70;100922.88;4961345;28;45522;-77
2022/06/03 00:20:07;;;;;;;;;5.25;5.25;;;;;20.43;38.78;100923.44;4933299;28;45417;-77
2022/06/03 00:22:45;;;;;;;;;3.00;3.00;;;;;20.40;39.15;100915.63;4937052;28;47819;-77
2022/06/03 00:25:52;;;;;;;;;4.75;4.75;;;;;20.35;39.16;100923.31;4940714;28;46143;-77
2022/06/03 00:29:00;;;;;;;;;4.00;4.00;;;;;20.30;39.36;100919.31;4931640;28;45398;-77
2022/06/03 00:31:43;;;;;;;;;3.00;3.00;;;;;20.26;39.39;100916.06;4926269;28;45446;-77
2022/06/03 00:34:38;;;;;;;;;3.50;3.50;;;;;20.24;39.40;100919.94;4951902;28;47138;-77
2022/06/03 00:37:27;;;;;;;;;5.25;4.25;;;;;20.21;39.34;100913.81;4970827;28;45395;-77
2022/06/03 00:40:37;;;;;;;;;3.50;3.50;;;;;20.17;39.47;100906.13;4968578;28;45561;-78
2022/06/03 00:43:23;;;;;;;;;5.00;4.00;;;;;20.14;39.74;100918.09;4971870;28;45450;-77
2022/06/03 00:46:09;;;;;;;;;3.00;3.00;;;;;20.14;39.59;100909.97;4975110;28;46219;-80
2022/06/03 00:48:47;;;;;;;;;4.00;4.00;;;;;20.12;39.81;100908.41;4968941;28;45443;-79
2022/06/03 00:51:27;;;;;;;;;3.25;3.25;;;;;20.08;40.40;100921.34;4984671;28;48845;-76
2022/06/03 00:54:07;;;;;;;;;4.00;4.00;;;;;20.05;40.10;100918.09;4971806;28;45489;-76
2022/06/03 00:56:44;;;;;;;;;3.00;3.00;;;;;20.02;40.14;100918.38;4970587;28;48305;-76
2022/06/03 00:59:51;;;;;;;;;3.25;3.25;;;;;20.03;40.24;100920.06;4969872;28;45756;-77
2022/06/03 01:02:25;;;;;;;;;3.25;3.00;;;;;19.99;40.28;100924.94;4958154;28;45599;-77
2022/06/03 01:05:02;;;;;;;;;5.50;4.25;;;;;19.96;40.50;100919.78;4958387;28;45475;-77
2022/06/03 01:07:42;;;;;;;;;2.00;2.00;;;;;19.94;40.71;100916.38;4956756;28;46170;-76
2022/06/03 01:10:20;;;;;;;;;3.25;3.25;;;;;19.91;40.61;100914.81;4958620;28;45846;-76
2022/06/03 01:13:22;;;;;;;;;4.00;4.00;;;;;19.89;40.74;100916.81;4946097;28;45492;-76
2022/06/03 01:16:14;;;;;;;;;3.00;3.00;;;;;19.85;40.49;100912.69;4960437;28;45668;-77
2022/06/03 01:18:56;;;;;;;;;5.00;4.00;;;;;19.81;40.85;100910.41;4956225;28;46453;-77
2022/06/03 01:22:13;;;;;;;;;4.00;4.00;;;;;19.80;40.85;100912.28;4955133;28;45450;-77
2022/06/03 01:25:13;;;;;;;;;4.00;4.00;;;;;19.77;40.82;100916.09;4900062;28;45786;-77
2022/06/03 01:27:56;;;;;;;;;4.25;4.25;;;;;19.77;40.78;100926.91;4903953;28;45578;-77
2022/06/03 01:30:49;;;;;;;;;3.00;3.00;;;;;19.76;40.79;100936.00;4895859;28;48666;-76
2022/06/03 01:33:26;;;;;;;;;3.00;3.00;;;;;19.75;40.83;100922.66;4911350;28;45569;-77
2022/06/03 01:36:16;;;;;;;;;4.00;4.00;;;;;19.77;40.48;100920.63;4911029;28;45406;-76
2022/06/03 01:39:18;;;;;;;;;2.25;2.25;;;;;19.73;40.77;100908.44;4890285;28;45328;-77
2022/06/03 01:42:14;;;;;;;;;4.00;4.00;;;;;19.71;40.77;100908.56;4880236;29;45537;-76
2022/06/03 01:45:10;;;;;;;;;1.75;1.75;;;;;19.66;40.96;100912.66;4884109;29;45388;-76
2022/06/03 01:48:11;;;;;;;;;4.00;4.00;;;;;19.64;40.93;100903.84;4882536;29;45649;-78
2022/06/03 01:51:01;;;;;;;;;3.00;3.00;;;;;19.59;40.81;100902.41;4891709;29;45429;-77
2022/06/03 01:54:03;;;;;;;;;4.00;4.00;;;;;19.57;40.86;100896.28;4880766;29;46410;-77
2022/06/03 01:56:58;;;;;;;;;4.00;4.00;;;;;19.54;41.11;100888.47;4903265;28;45442;-77
2022/06/03 01:59:51;;;;;;;;;2.75;2.75;;;;;19.53;41.00;100894.00;4885728;29;45571;-77
2022/06/03 02:02:50;;;;;;;;;4.25;3.25;;;;;19.51;41.05;100890.63;4968896;28;45526;-77
2022/06/03 02:05:26;;;;;;;;;3.25;3.25;;;;;19.52;41.13;100886.91;4967525;28;47199;-79
2022/06/03 02:08:13;;;;;;;;;3.50;3.50;;;;;19.48;40.70;100880.94;4970890;28;45455;-79
2022/06/03 02:10:53;;;;;;;;;3.00;3.00;;;;;19.45;40.91;100880.34;4969196;28;45435;-79
2022/06/03 02:13:45;;;;;;;;;4.00;4.00;;;;;19.41;41.07;100877.09;4970583;28;45384;-81
2022/06/03 02:16:31;;;;;;;;;5.75;5.25;;;;;19.41;41.22;100866.31;4964777;28;45652;-81
2022/06/03 02:19:33;;;;;;;;;3.00;3.00;;;;;19.39;40.79;100862.03;5001406;28;45547;-82
2022/06/03 02:22:36;;;;;;;;;3.25;3.25;;;;;19.38;40.63;100866.56;5001025;28;45575;-82
2022/06/03 02:25:20;;;;;;;;;5.25;3.00;;;;;19.36;41.03;100861.31;4971215;28;45532;-79
2022/06/03 02:27:57;;;;;;;;;2.75;2.75;;;;;19.33;41.25;100852.63;4970252;28;45445;-80
2022/06/03 02:30:29;;;;;;;;;2.25;2.25;;;;;19.30;41.23;100840.28;5005352;28;46778;-79
2022/06/03 02:33:16;;;;;;;;;4.00;4.00;;;;;19.25;41.30;100839.00;4971202;28;45561;-79
2022/06/03 02:36:06;;;;;;;;;3.25;3.25;;;;;19.23;40.81;100836.44;4968417;28;45502;-79
2022/06/03 02:39:08;;;;;;;;;3.25;3.25;;;;;19.22;41.25;100842.84;4971743;28;45491;-81
2022/06/03 02:42:14;;;;;;;;;3.75;3.75;;;;;19.21;41.19;100840.25;4971735;28;45403;-80
2022/06/03 02:45:14;;;;;;;;;3.75;3.75;;;;;19.20;41.26;100833.16;5001834;28;45588;-80
2022/06/03 02:48:12;;;;;;;;;3.00;2.00;;;;;19.18;41.32;100825.19;4969863;28;45392;-78
2022/06/03 02:51:01;;;;;;;;;4.00;4.00;;;;;19.18;41.40;100825.19;4985949;28;46163;-78
2022/06/03 02:53:39;;;;;;;;;3.75;2.25;;;;;19.17;41.52;100820.81;4969997;28;45556;-78
2022/06/03 02:56:13;;;;;;;;;6.00;6.00;;;;;19.13;41.54;100825.63;4973431;28;45520;-79
2022/06/03 02:58:52;;;;;;;;;3.00;3.00;;;;;19.12;41.45;100818.53;4969314;28;45447;-78
2022/06/03 03:01:50;;;;;;;;;5.25;2.50;;;;;19.12;41.56;100823.03;4971832;28;45488;-78
2022/06/03 03:04:42;;;;;;;;;3.00;2.00;;;;;19.09;41.65;100818.78;4976080;28;46483;-78
2022/06/03 03:07:31;;;;;;;;;4.00;4.00;;;;;19.10;41.66;100820.50;4970919;28;45463;-78
2022/06/03 03:10:15;;;;;;;;;3.50;3.50;;;;;19.07;41.53;100815.41;4970345;28;45547;-79
2022/06/03 03:12:46;;;;;;;;;3.00;3.00;;;;;19.03;42.06;100815.81;4972250;28;45381;-79
2022/06/03 03:15:25;;;;;;;;;4.00;4.00;;;;;18.96;42.08;100815.50;4970152;28;45519;-79
2022/06/03 03:18:16;;;;;;;;;4.00;4.00;;;;;18.92;42.29;100817.63;4974905;28;45504;-79
2022/06/03 03:21:23;;;;;;;;;3.25;3.25;;;;;18.88;42.56;100826.13;4976836;28;45477;-79
2022/06/03 03:24:10;;;;;;;;;2.50;2.50;;;;;18.87;42.32;100829.81;4935594;28;46772;-79
2022/06/03 03:26:53;;;;;;;;;4.00;4.00;;;;;18.81;42.30;100827.66;4930231;28;45545;-79
2022/06/03 03:29:40;;;;;;;;;4.00;4.00;;;;;18.77;42.88;100827.09;4935706;28;45446;-79
2022/06/03 03:32:26;;;;;;;;;3.75;3.75;;;;;18.74;42.86;100830.03;4935929;28;45556;-79
2022/06/03 03:35:12;;;;;;;;;3.25;3.25;;;;;18.74;42.84;100838.13;4919502;28;48410;-79
2022/06/03 03:37:41;;;;;;;;;3.75;3.25;;;;;18.70;43.12;100836.69;4936132;28;45578;-78
2022/06/03 03:40:09;;;;;;;;;2.25;2.25;;;;;18.65;43.04;100825.47;4920246;28;45664;-78
2022/06/03 03:42:49;;;;;;;;;4.00;4.00;;;;;18.63;43.24;100830.97;4936657;28;45410;-78
2022/06/03 03:45:33;;;;;;;;;3.00;3.00;;;;;18.64;43.41;100830.00;4936270;28;46402;-78
2022/06/03 03:48:36;;;;;;;;;3.75;3.75;;;;;18.57;43.38;100831.53;4932994;28;45436;-78
2022/06/03 03:51:10;;;;;;;;;4.00;3.50;;;;;18.51;43.68;100832.91;4936626;28;45461;-78
2022/06/03 03:54:12;;;;;;;;;4.75;4.75;;;;;18.50;43.93;100831.22;4920342;28;45664;-78
2022/06/03 03:57:10;;;;;;;;;3.00;3.00;;;;;18.46;44.17;100824.38;4936351;28;45780;-78
2022/06/03 03:59:47;;;;;;;;;4.50;4.50;;;;;18.44;44.11;100829.06;4938233;28;45502;-78
2022/06/03 04:02:31;;;;;;;;;6.00;4.75;;;;;18.44;44.11;100822.81;4975839;28;45539;-78
2022/06/03 04:05:31;;;;;;;;;4.00;4.00;;;;;18.48;43.79;100822.41;4976906;28;45323;-78
2022/06/03 04:08:30;;;;;;;;;4.75;4.75;;;;;18.48;43.66;100822.41;4976806;28;45457;-78
2022/06/03 04:11:14;;;;;;;;;4.50;4.50;;;;;18.41;43.98;100821.25;4976420;28;45583;-78
2022/06/03 04:14:12;;;;;;;;;5.00;4.75;;;;;18.42;44.23;100819.41;4975037;28;45569;-77
2022/06/03 04:16:59;;;;;;;;;5.50;5.50;;;;;18.41;44.23;100821.25;4976177;28;45462;-80
2022/06/03 04:20:02;;;;;;;;;4.00;4.00;;;;;18.43;44.27;100819.28;4976290;28;45551;-79
2022/06/03 04:23:04;;;;;;;;;3.75;3.75;;;;;18.43;44.10;100821.97;4975960;28;45297;-78
2022/06/03 04:25:57;;;;;;;;;5.25;4.50;;;;;18.43;44.11;100829.22;4976268;28;45451;-78
2022/06/03 04:28:41;;;;;;;;;5.00;5.00;;;;;18.41;44.36;100825.78;5008190;28;45551;-78
2022/06/03 04:32:03;;;;;;;;;4.75;4.75;;;;;18.40;44.63;100824.94;4975844;28;45626;-79
2022/06/03 04:34:28;;;;;;;;;3.25;3.25;;;;;18.43;44.56;100823.81;4975570;28;45363;-78
2022/06/03 04:37:24;;;;;;;;;5.00;5.00;;;;;18.42;44.81;100816.69;5007038;28;45817;-78
2022/06/03 04:40:14;;;;;;;;;3.00;3.00;;;;;18.42;44.57;100822.09;4963900;28;45377;-79
2022/06/03 04:43:11;;;;;;;;;5.00;5.00;;;;;18.46;44.35;100829.78;4961814;28;45644;-80
2022/06/03 04:46:08;;;;;;;;;0.00;0.00;;;;;18.45;44.92;100833.47;4961584;28;45512;-80
2022/06/03 04:49:16;;;;;;;;;3.00;3.00;;;;;18.49;44.73;100832.19;4928384;28;45540;-80
2022/06/03 04:52:00;;;;;;;;;5.25;5.25;;;;;18.53;44.71;100836.34;4837159;29;45784;-84
2022/06/03 04:55:15;;;;;;;;;3.50;3.50;;;;;18.53;44.81;100846.28;4840089;29;46291;-85
2022/06/03 04:58:05;;;;;;;;;7.00;5.00;;;;;18.55;44.78;100838.91;4821632;29;45824;-79
2022/06/03 05:00:59;;;;;;;;;4.00;4.00;;;;;18.56;45.03;100837.91;4833034;29;45599;-79
2022/06/03 05:03:33;;;;;;;;;4.25;4.00;;;;;18.54;45.28;100839.88;4836543;29;45837;-79
2022/06/03 05:06:33;;;;;;;;;6.00;6.00;;;;;18.56;45.31;100835.22;4854698;29;47247;-79
2022/06/03 05:09:33;;;;;;;;;6.25;6.25;;;;;18.60;45.08;100839.34;4835650;29;45486;-80
2022/06/03 05:12:21;;;;;;;;;5.00;5.00;;;;;18.63;44.90;100835.53;4838327;29;45505;-80
2022/06/03 05:14:55;;;;;;;;;5.50;5.50;;;;;18.68;45.27;100828.72;4834208;29;45922;-79
2022/06/03 05:17:49;;;;;;;;;4.75;4.75;;;;;18.70;45.28;100826.75;4838332;29;45935;-81
2022/06/03 05:20:42;;;;;;;;;3.50;3.50;;;;;18.71;45.59;100820.38;4802635;29;45987;-80
2022/06/03 05:23:26;;;;;;;;;4.75;4.75;;;;;18.72;45.54;100837.41;4787237;29;45483;-80
2022/06/03 05:26:10;;;;;;;;;4.75;4.75;;;;;18.77;45.59;100842.44;4829322;29;45621;-80
2022/06/03 05:28:50;;;;;;;;;5.50;4.75;;;;;18.78;45.92;100841.44;4853194;29;46032;-80
2022/06/03 05:31:24;;;;;;;;;5.50;4.50;;;;;18.84;45.62;100840.91;4895978;28;45705;-83
2022/06/03 05:34:08;;;;;;;;;4.25;4.00;;;;;18.84;45.74;100839.03;4896270;29;45506;-84
2022/06/03 05:36:53;;;;;;;;;4.00;4.00;;;;;18.85;45.83;100831.81;4882219;29;45466;-85
2022/06/03 05:39:40;;;;;;;;;6.00;6.00;;;;;18.90;45.83;100834.94;4880648;29;47837;-85
2022/06/03 05:42:32;;;;;;;;;5.00;5.00;;;;;18.91;46.08;100829.41;4878178;28;45433;-83
2022/06/03 05:45:22;;;;;;;;;6.25;6.25;;;;;18.93;46.71;100830.13;4893355;29;45340;-84
2022/06/03 05:48:03;;;;;;;;;7.00;6.25;;;;;18.98;46.06;100824.31;4896168;29;45416;-84
2022/06/03 05:50:43;;;;;;;;;6.00;6.00;;;;;19.02;46.09;100812.25;4896512;29;45323;-84
2022/06/03 05:53:32;;;;;;;;;5.50;5.50;;;;;19.05;46.22;100808.41;4895736;29;45799;-84
2022/06/03 05:56:35;;;;;;;;;7.75;5.75;;;;;19.09;46.25;100805.28;4895983;28;45395;-85
2022/06/03 05:59:16;;;;;;;;;6.00;6.00;;;;;19.14;46.16;100807.56;4968192;28;45548;-85
2022/06/03 06:01:51;;;;;;;;;10.00;10.00;;;;;19.18;46.06;100798.22;4972932;28;46120;-84
2022/06/03 06:04:28;;;;;;;;;6.00;6.00;;;;;19.23;46.28;100804.03;4974970;28;45524;-84
2022/06/03 06:07:35;;;;;;;;;5.75;5.75;;;;;19.28;46.41;100809.00;5006898;28;45535;-84
2022/06/03 06:10:08;;;;;;;;;6.00;6.00;;;;;19.36;46.51;100804.63;4942760;28;45604;-84
2022/06/03 06:12:44;;;;;;;;;5.25;5.25;;;;;19.40;46.93;100805.19;4938451;28;45454;-85
2022/06/03 06:15:34;;;;;;;;;7.50;6.00;;;;;19.44;46.98;100812.00;4933762;28;45581;-85
2022/06/03 06:18:00;;;;;;;;;6.00;6.00;;;;;19.50;46.65;100816.81;4934894;28;45396;-84
2022/06/03 06:20:40;;;;;;;;;7.25;5.50;;;;;19.55;45.93;100824.50;4939433;28;45413;-85
2022/06/03 06:23:16;;;;;;;;;6.50;6.50;;;;;19.55;46.19;100817.28;4927151;28;47617;-85
2022/06/03 06:26:11;;;;;;;;;7.00;6.50;;;;;19.61;45.99;100812.31;4941926;28;45326;-85
2022/06/03 06:28:53;;;;;;;;;6.00;6.00;;;;;19.61;46.27;100810.44;4937600;28;45617;-84
2022/06/03 06:31:33;;;;;;;;;10.75;9.00;;;;;19.67;46.53;100807.16;4948549;28;45665;-84
2022/06/03 06:34:20;;;;;;;;;7.00;7.00;;;;;19.69;46.23;100812.47;4942827;28;45512;-84
2022/06/03 06:37:22;;;;;;;;;7.75;7.75;;;;;19.72;46.18;100804.94;4936988;28;45459;-83
2022/06/03 06:39:53;;;;;;;;;7.75;7.75;;;;;19.76;46.11;100819.00;4936657;28;45533;-84
2022/06/03 06:42:30;;;;;;;;;7.00;7.00;;;;;19.82;46.26;100818.44;4973501;28;45547;-84
2022/06/03 06:45:12;;;;;;;;;6.50;6.50;;;;;19.83;46.45;100819.28;4994449;28;48188;-84
2022/06/03 06:48:03;;;;;;;;;10.25;8.75;;;;;19.87;46.92;100816.13;5001546;28;45448;-85
2022/06/03 06:50:40;;;;;;;;;4.00;4.00;;;;;19.96;46.21;100811.69;4973817;28;45415;-84
2022/06/03 06:53:11;;;;;;;;;5.00;5.00;;;;;20.00;46.54;100811.25;4971678;28;45595;-84
2022/06/03 06:56:02;;;;;;;;;9.75;8.75;;;;;20.05;46.64;100807.28;4973576;28;45444;-83
2022/06/03 06:58:42;;;;;;;;;8.25;6.50;;;;;20.10;46.63;100805.00;4971194;28;45414;-84
2022/06/03 07:01:12;;;;;;;;;7.75;7.75;;;;;20.11;46.67;100799.44;4970878;28;45464;-83
2022/06/03 07:03:55;;;;;;;;;8.25;6.25;;;;;20.16;46.59;100802.56;4973258;28;45494;-81
2022/06/03 07:06:37;;;;;;;;;5.50;4.75;;;;;20.24;46.47;100809.94;4972320;28;45484;-82
2022/06/03 07:09:20;;;;;;;;;5.25;5.25;;;;;20.30;46.49;100816.59;4973280;28;45558;-83
2022/06/03 07:11:56;;;;;;;;;6.25;4.75;;;;;20.37;46.48;100807.75;4976345;28;45495;-83
2022/06/03 07:14:31;;;;;;;;;6.75;6.75;;;;;20.44;46.80;100805.28;4976447;28;46866;-82
2022/06/03 07:20:07;;;;;;;;;7.75;7.75;;;;;20.55;46.46;100806.97;4977217;28;45438;-81
2022/06/03 07:22:46;;;;;;;;;8.00;8.00;;;;;20.59;46.37;100801.16;4976428;28;45429;-81
2022/06/03 07:25:27;;;;;;;;;7.00;7.00;;;;;20.62;46.43;100800.00;4977012;28;45564;-81
2022/06/03 07:27:52;;;;;;;;;7.25;7.25;;;;;20.72;46.21;100805.34;4977236;28;46717;-81
2022/06/03 07:30:40;;;;;;;;;8.00;6.50;;;;;20.75;46.18;100805.88;4976955;28;45420;-79
2022/06/03 07:33:34;;;;;;;;;6.25;6.25;;;;;20.82;46.50;100812.41;4974385;28;45456;-79
2022/06/03 07:36:21;;;;;;;;;7.50;7.50;;;;;20.90;46.29;100816.19;4975717;28;45559;-81
2022/06/03 07:38:55;;;;;;;;;7.00;5.50;;;;;20.95;46.59;100817.47;4976513;28;46008;-80
2022/06/03 07:41:35;;;;;;;;;6.25;6.25;;;;;21.03;46.62;100808.59;4977275;28;45511;-81
2022/06/03 07:44:13;;;;;;;;;8.00;6.75;;;;;21.08;46.32;100822.50;4977752;28;45377;-82
2022/06/03 07:46:52;;;;;;;;;6.50;6.50;;;;;21.15;47.16;100820.91;4977152;28;45483;-83
2022/06/03 07:49:21;;;;;;;;;8.50;8.50;;;;;21.24;47.17;100819.13;4977224;28;45355;-82
2022/06/03 07:51:52;;;;;;;;;6.25;6.25;;;;;21.26;47.64;100819.81;4976439;28;45527;-83
2022/06/03 07:54:30;;;;;;;;;6.00;6.00;;;;;21.35;47.56;100810.75;4976867;28;45361;-83
2022/06/03 07:57:18;;;;;;;;;8.00;8.00;;;;;21.43;47.65;100815.44;4973662;28;45341;-82
2022/06/03 07:59:43;;;;;;;;;7.50;7.25;;;;;21.50;47.52;100816.53;4976196;28;45474;-82
2022/06/03 08:02:11;;;;;;;;;7.00;7.00;;;;;21.49;46.99;100825.66;4976695;28;45420;-83
2022/06/03 08:04:38;;;;;;;;;8.00;6.25;;;;;21.47;47.10;100817.69;5003654;28;45522;-82
2022/06/03 08:13:00;;;;;;;;;7.00;7.00;;;;;21.72;47.40;100817.03;4976914;28;45443;-83
2022/06/03 08:15:33;;;;;;;;;6.00;6.00;;;;;21.77;47.82;100810.16;4975100;28;45456;-81
2022/06/03 08:18:00;;;;;;;;;7.00;7.00;;;;;21.82;48.10;100807.00;4975123;28;45371;-82
2022/06/03 08:20:27;;;;;;;;;7.50;7.50;;;;;21.89;47.98;100814.31;4976764;28;46118;-81
2022/06/03 08:22:53;;;;;;;;;7.00;7.00;;;;;21.97;48.28;100812.69;4975847;28;45350;-81
2022/06/03 08:25:25;;;;;;;;;6.25;6.25;;;;;22.04;47.32;100819.16;4975740;28;45293;-82
2022/06/03 08:27:52;;;;;;;;;8.00;8.00;;;;;22.10;47.68;100811.25;5008229;28;45644;-81
2022/06/03 08:30:20;;;;;;;;;8.00;8.00;;;;;22.18;47.42;100817.75;4976528;28;46221;-81
2022/06/03 08:32:51;;;;;;;;;9.25;8.00;;;;;22.23;47.45;100810.00;4976777;28;45370;-79
2022/06/03 08:35:23;;;;;;;;;10.25;9.00;;;;;22.25;47.42;100808.84;4976212;28;45444;-80
2022/06/03 08:38:13;;;;;;;;;10.25;10.25;;;;;22.35;47.75;100810.59;4976363;28;45575;-81
2022/06/03 08:40:55;;;;;;;;;9.75;8.50;;;;;22.42;46.93;100807.06;4973236;28;47498;-82
2022/06/03 08:43:45;;;;;;;;;8.50;8.50;;;;;22.51;47.31;100808.81;4971992;28;45879;-82
2022/06/03 08:46:18;;;;;;;;;7.00;6.00;;;;;22.56;47.28;100802.88;4974953;28;45567;-83
2022/06/03 08:48:47;;;;;;;;;7.25;7.25;;;;;22.64;46.37;100799.34;4978181;28;45337;-81
2022/06/03 08:51:32;;;;;;;;;10.25;8.00;;;;;22.71;47.35;100790.41;4991074;28;46107;-84
2022/06/03 08:54:04;;;;;;;;;10.00;8.50;;;;;22.78;46.85;100790.59;4972743;28;45436;-84
2022/06/03 08:56:37;;;;;;;;;11.25;11.25;;;;;22.81;46.15;100789.41;4976355;28;45571;-83
2022/06/03 08:59:18;;;;;;;;;12.25;12.25;;;;;22.86;46.31;100781.63;4976014;28;45550;-84
2022/06/03 09:01:51;;;;;;;;;10.00;9.00;;;;;22.86;46.08;100782.47;4990674;28;47046;-84
2022/06/03 09:04:22;;;;;;;;;8.00;8.00;;;;;22.87;45.79;100772.44;4976063;28;45592;-83
2022/06/03 09:07:01;;;;;;;;;8.25;8.00;;;;;22.88;45.62;100772.28;4976213;28;45518;-83
2022/06/03 09:09:53;;;;;;;;;8.00;8.00;;;;;22.93;45.96;100777.22;4974915;28;45662;-83
2022/06/03 09:12:36;;;;;;;;;8.00;8.00;;;;;22.89;45.93;100779.41;4997284;28;47220;-83
2022/06/03 09:15:11;;;;;;;;;10.00;10.00;;;;;22.88;46.10;100785.03;4974365;28;45459;-82
2022/06/03 09:17:56;;;;;;;;;10.25;9.75;;;;;22.92;46.21;100789.97;4975736;28;45519;-81
2022/06/03 09:20:28;;;;;;;;;9.00;9.00;;;;;23.01;46.02;100793.56;4975375;28;45489;-81
2022/06/03 09:23:13;;;;;;;;;11.00;10.25;;;;;23.06;46.51;100787.63;4975502;28;46335;-81
2022/06/03 09:25:48;;;;;;;;;9.00;9.00;;;;;23.08;46.64;100785.59;4975405;28;45345;-81
2022/06/03 09:28:31;;;;;;;;;2.75;1.75;;;;;23.11;46.56;100782.56;4975910;28;45499;-80
2022/06/03 09:30:59;;;;;;;;;14.50;14.50;;;;;23.14;46.90;100793.09;4975664;28;45413;-83
2022/06/03 09:33:27;;;;;;;;;12.75;11.50;;;;;23.17;47.32;100795.47;4973524;28;47164;-81
2022/06/03 09:35:56;;;;;;;;;10.25;10.25;;;;;23.19;47.33;100798.88;4976000;28;45496;-80
2022/06/03 09:38:25;;;;;;;;;13.25;10.25;;;;;23.23;47.27;100802.94;4990362;28;45570;-79
2022/06/03 09:40:56;;;;;;;;;12.25;12.25;;;;;23.25;47.30;100822.63;4975538;28;45510;-79
2022/06/03 09:43:37;;;;;;;;;11.75;10.50;;;;;23.26;46.77;100837.94;4975340;28;46205;-79
2022/06/03 09:46:05;;;;;;;;;11.00;10.00;;;;;23.27;46.77;100839.63;4975440;28;45352;-80
2022/06/03 09:48:34;;;;;;;;;9.25;9.25;;;;;23.29;46.98;100829.44;4975491;28;45525;-79
2022/06/03 09:54:19;;;;;;;;;10.50;10.50;;;;;23.29;46.93;100862.03;4975301;28;45932;-79
2022/06/03 09:56:48;;;;;;;;;10.75;8.75;;;;;23.21;47.57;100840.31;4974618;28;45237;-81
2022/06/03 09:59:13;;;;;;;;;14.75;12.00;;;;;23.24;47.39;100825.53;4974008;28;45334;-80
2022/06/03 10:01:39;;;;;;;;;10.25;10.25;;;;;23.28;47.13;100846.78;4975195;28;45327;-80
2022/06/03 10:04:06;;;;;;;;;9.75;9.50;;;;;23.34;47.65;100840.66;4975229;28;45592;-81
2022/06/03 10:06:48;;;;;;;;;7.25;6.75;;;;;23.37;47.19;100832.16;4973748;28;46337;-80
2022/06/03 10:17:39;;;;;;;;;9.50;8.00;;;;;23.35;48.11;100815.19;4973262;28;45514;-78
2022/06/03 10:20:08;;;;;;;;;12.00;10.25;;;;;23.41;47.89;100819.13;4974439;28;45747;-80
2022/06/03 10:22:33;;;;;;;;;13.00;12.50;;;;;23.44;47.33;100817.94;4974730;28;45537;-78
2022/06/03 10:24:59;;;;;;;;;8.25;8.25;;;;;23.48;47.13;100811.16;4972234;28;48720;-78
2022/06/03 10:27:26;;;;;;;;;12.00;11.75;;;;;23.51;47.78;100810.78;4977761;28;45483;-80
2022/06/03 10:29:51;;;;;;;;;11.75;10.75;;;;;23.58;47.22;100814.53;4975585;28;45409;-79
2022/06/03 10:32:21;;;;;;;;;10.75;10.75;;;;;23.63;47.38;100806.72;4974788;28;49763;-80
2022/06/03 10:34:47;;;;;;;;;11.00;11.00;;;;;23.70;47.87;100805.03;4974561;28;45946;-80
2022/06/03 10:37:18;;;;;;;;;10.75;10.75;;;;;23.77;48.58;100813.38;4976326;28;45415;-79
2022/06/03 10:39:45;;;;;;;;;12.00;11.00;;;;;23.83;47.98;100814.56;4975173;28;45405;-80
2022/06/03 10:42:19;;;;;;;;;9.00;9.00;;;;;23.90;47.99;100807.41;4974967;28;45413;-80
2022/06/03 10:44:47;;;;;;;;;12.50;11.25;;;;;23.99;49.29;100809.97;4973358;28;46114;-80
2022/06/03 10:47:33;;;;;;;;;8.50;8.50;;;;;24.06;48.36;100810.13;4977820;28;45501;-79
2022/06/03 10:50:02;;;;;;;;;13.75;11.50;;;;;24.17;48.91;100817.94;4978099;28;45474;-79
2022/06/03 11:03:31;;;;;;;;;11.25;11.25;;;;;24.71;48.59;100811.84;4962835;28;45472;-77
2022/06/03 11:06:03;;;;;;;;;11.50;11.00;;;;;24.81;48.53;100808.88;4978534;28;46042;-77
2022/06/03 11:08:46;;;;;;;;;10.00;9.00;;;;;24.89;48.39;100811.56;4977944;28;45483;-76
2022/06/03 11:11:12;;;;;;;;;14.25;12.75;;;;;24.93;47.86;100809.34;4977394;28;45343;-79
2022/06/03 11:13:41;;;;;;;;;12.25;11.75;;;;;25.03;48.05;100816.25;4976426;28;45503;-76
2022/06/03 11:16:26;;;;;;;;;12.75;12.75;;;;;25.13;48.42;100826.09;4977389;28;46260;-76
2022/06/03 11:18:52;;;;;;;;;8.25;8.25;;;;;25.14;48.24;100828.63;4977641;28;45381;-76
2022/06/03 11:21:26;;;;;;;;;11.75;10.25;;;;;25.16;48.53;100834.75;4977512;28;45547;-76
2022/06/03 11:23:55;;;;;;;;;14.25;11.75;;;;;25.19;48.11;100837.16;4977712;28;45697;-76
2022/06/03 11:26:25;;;;;;;;;11.00;10.75;;;;;25.15;47.89;100838.50;4975680;28;47130;-78
2022/06/03 11:29:02;;;;;;;;;11.25;11.25;;;;;25.04;48.06;100842.50;4977003;28;45560;-80
2022/06/03 11:31:37;;;;;;;;;11.25;10.25;;;;;25.01;48.01;100841.97;4977155;28;45392;-80
2022/06/03 11:34:10;;;;;;;;;16.75;15.75;;;;;24.98;48.50;100847.78;4979256;28;45586;-80
2022/06/03 11:36:43;;;;;;;;;11.00;11.00;;;;;24.95;48.75;100846.28;4977282;28;45543;-81
2022/06/03 11:39:20;;;;;;;;;11.75;10.75;;;;;24.82;48.34;100835.09;4977382;28;45570;-81
2022/06/03 11:42:11;;;;;;;;;9.50;9.50;;;;;24.72;49.09;100842.63;4976742;28;45417;-80
2022/06/03 11:44:49;;;;;;;;;9.75;8.75;;;;;24.64;49.39;100835.34;4977844;28;45445;-80
2022/06/03 11:47:37;;;;;;;;;11.00;9.75;;;;;24.55;49.36;100848.13;4975707;28;45507;-82
2022/06/03 11:50:04;;;;;;;;;7.50;7.50;;;;;24.44;49.98;100852.03;4977046;28;45269;-82
2022/06/03 11:52:29;;;;;;;;;9.50;7.50;;;;;24.34;49.99;100854.13;4977071;28;45396;-81
2022/06/03 11:54:55;;;;;;;;;11.00;10.00;;;;;24.23;50.22;100852.59;4991538;28;45667;-81
2022/06/03 11:57:21;;;;;;;;;8.00;8.00;;;;;24.17;50.44;100861.47;4975108;28;46004;-82
2022/06/03 12:00:03;;;;;;;;;11.25;8.50;;;;;24.16;50.53;100856.19;4977219;28;45292;-82
2022/06/03 12:02:36;;;;;;;;;9.00;9.00;;;;;24.15;51.26;100849.91;4975889;28;45498;-84
2022/06/03 12:05:16;;;;;;;;;9.00;9.00;;;;;24.11;51.69;100848.53;4976614;28;45461;-90
2022/06/03 12:08:00;;;;;;;;;10.00;10.00;;;;;24.07;51.95;100855.31;4970650;28;45646;-89
2022/06/03 12:10:56;;;;;;;;;8.00;8.00;;;;;24.02;53.03;100853.13;4976600;28;45444;-89
2022/06/03 12:13:27;;;;;;;;;10.75;9.25;;;;;23.93;53.63;100862.31;5008413;28;45608;-91
2022/06/03 12:15:56;;;;;;;;;10.25;10.25;;;;;23.87;53.63;100854.00;4977012;28;45439;-91
2022/06/03 12:18:42;;;;;;;;;25.00;25.00;;;;;23.79;54.58;100872.00;4976342;28;47734;-91
2022/06/03 12:21:33;;;;;;;;;9.50;9.50;;;;;23.71;55.18;100860.22;4974411;28;45594;-89
2022/06/03 12:24:31;;;;;;;;;11.00;11.00;;;;;23.65;55.93;100866.38;4973272;28;45520;-89
2022/06/03 12:27:01;;;;;;;;;12.50;10.50;;;;;23.54;57.81;100862.94;4951470;28;46126;-86
2022/06/03 12:29:38;;;;;;;;;11.00;11.00;;;;;23.52;57.92;100861.41;4939728;28;45444;-84
2022/06/03 12:32:13;;;;;;;;;10.00;10.00;;;;;23.38;57.93;100852.91;4923065;28;45564;-85
2022/06/03 12:34:39;;;;;;;;;11.25;10.75;;;;;23.32;58.45;100858.16;4939603;28;45390;-86
2022/06/03 12:37:27;;;;;;;;;10.00;10.00;;;;;23.22;60.07;100861.00;4939709;28;45270;-89
2022/06/03 12:40:18;;;;;;;;;12.50;12.00;;;;;23.09;60.62;100864.22;4938727;28;45526;-87
2022/06/03 12:42:45;;;;;;;;;10.50;10.00;;;;;22.91;61.26;100868.84;4924172;28;45786;-86
2022/06/03 12:45:13;;;;;;;;;10.75;9.75;;;;;22.81;62.51;100866.25;4919831;28;45392;-87
2022/06/03 12:47:46;;;;;;;;;8.75;8.75;;;;;22.73;62.82;100864.38;4937897;28;45610;-87
2022/06/03 12:50:38;;;;;;;;;8.75;8.75;;;;;22.69;63.54;100868.41;4939295;28;45493;-87
2022/06/03 12:53:28;;;;;;;;;9.50;9.00;;;;;22.67;64.07;100867.72;4936937;28;45573;-88
2022/06/03 12:55:58;;;;;;;;;5.75;5.50;;;;;22.64;64.20;100876.19;4939495;28;45466;-87
2022/06/03 12:58:50;;;;;;;;;9.00;8.00;;;;;22.62;64.18;100863.81;4939574;28;45461;-87
2022/06/03 13:01:44;;;;;;;;;9.75;8.50;;;;;22.53;64.80;100863.75;4939262;28;46346;-86